sensor_id;sensor_type;location;lat;lon;timestamp;P1;durP1;ratioP1;P2;durP2;ratioP2
37805;SDS011;25082;50.870;0.022;2022-08-11T00:00:07;2.17;;;1.60;;
37805;SDS011;25082;50.870;0.022;2022-08-11T00:02:38;3.75;;;1.67;;
37805;SDS011;25082;50.870;0.022;2022-08-11T00:05:06;2.17;;;1.52;;
37805;SDS011;25082;50.870;0.022;2022-08-11T00:07:44;2.17;;;1.70;;
37805;SDS011;25082;50.870;0.022;2022-08-11T00:10:14;5.38;;;1.70;;
37805;SDS011;25082;50.870;0.022;2022-08-11T00:12:49;1.92;;;1.60;;
37805;SDS011;25082;50.870;0.022;2022-08-11T00:15:21;2.60;;;1.98;;
37805;SDS011;25082;50.870;0.022;2022-08-11T00:17:49;3.05;;;1.63;;
37805;SDS011;25082;50.870;0.022;2022-08-11T00:20:21;2.15;;;1.73;;
37805;SDS011;25082;50.870;0.022;2022-08-11T00:25:25;1.80;;;1.38;;
37805;SDS011;25082;50.870;0.022;2022-08-11T00:27:51;4.10;;;2.05;;
37805;SDS011;25082;50.870;0.022;2022-08-11T00:30:17;2.78;;;1.92;;
37805;SDS011;25082;50.870;0.022;2022-08-11T00:32:45;3.92;;;1.77;;
37805;SDS011;25082;50.870;0.022;2022-08-11T00:35:21;4.53;;;1.65;;
37805;SDS011;25082;50.870;0.022;2022-08-11T00:37:51;3.13;;;1.70;;
37805;SDS011;25082;50.870;0.022;2022-08-11T00:40:23;2.20;;;1.77;;
37805;SDS011;25082;50.870;0.022;2022-08-11T00:43:21;2.25;;;1.65;;
37805;SDS011;25082;50.870;0.022;2022-08-11T00:46:08;4.68;;;1.90;;
37805;SDS011;25082;50.870;0.022;2022-08-11T00:48:49;2.72;;;1.73;;
37805;SDS011;25082;50.870;0.022;2022-08-11T00:51:57;3.08;;;1.60;;
37805;SDS011;25082;50.870;0.022;2022-08-11T00:57:37;2.67;;;1.80;;
37805;SDS011;25082;50.870;0.022;2022-08-11T01:07:23;2.75;;;2.13;;
37805;SDS011;25082;50.870;0.022;2022-08-11T01:12:35;4.05;;;1.65;;
37805;SDS011;25082;50.870;0.022;2022-08-11T01:46:46;2.83;;;1.80;;
37805;SDS011;25082;50.870;0.022;2022-08-11T01:49:56;2.38;;;1.70;;
37805;SDS011;25082;50.870;0.022;2022-08-11T01:52:35;2.65;;;1.88;;
37805;SDS011;25082;50.870;0.022;2022-08-11T01:58:43;2.30;;;1.45;;
37805;SDS011;25082;50.870;0.022;2022-08-11T02:01:14;2.95;;;1.85;;
37805;SDS011;25082;50.870;0.022;2022-08-11T02:12:56;2.70;;;2.00;;
37805;SDS011;25082;50.870;0.022;2022-08-11T02:15:34;3.20;;;2.00;;
37805;SDS011;25082;50.870;0.022;2022-08-11T02:18:17;2.60;;;1.80;;
37805;SDS011;25082;50.870;0.022;2022-08-11T02:21:10;4.13;;;1.90;;
37805;SDS011;25082;50.870;0.022;2022-08-11T02:24:05;2.17;;;1.50;;
37805;SDS011;25082;50.870;0.022;2022-08-11T02:26:40;2.72;;;1.83;;
37805;SDS011;25082;50.870;0.022;2022-08-11T02:29:20;2.50;;;2.03;;
37805;SDS011;25082;50.870;0.022;2022-08-11T02:35:09;3.83;;;2.20;;
37805;SDS011;25082;50.870;0.022;2022-08-11T02:52:13;2.60;;;1.92;;
37805;SDS011;25082;50.870;0.022;2022-08-11T02:57:49;3.15;;;2.00;;
37805;SDS011;25082;50.870;0.022;2022-08-11T03:00:42;3.45;;;1.60;;
37805;SDS011;25082;50.870;0.022;2022-08-11T03:03:35;5.28;;;2.28;;
37805;SDS011;25082;50.870;0.022;2022-08-11T03:09:08;3.03;;;1.70;;
37805;SDS011;25082;50.870;0.022;2022-08-11T03:14:57;2.88;;;1.90;;
37805;SDS011;25082;50.870;0.022;2022-08-11T03:20:30;2.28;;;1.98;;
37805;SDS011;25082;50.870;0.022;2022-08-11T03:29:07;2.17;;;1.85;;
37805;SDS011;25082;50.870;0.022;2022-08-11T03:31:48;5.22;;;1.90;;
37805;SDS011;25082;50.870;0.022;2022-08-11T03:34:17;2.30;;;1.80;;
37805;SDS011;25082;50.870;0.022;2022-08-11T03:43:28;2.75;;;2.00;;
37805;SDS011;25082;50.870;0.022;2022-08-11T04:00:49;3.20;;;1.88;;
37805;SDS011;25082;50.870;0.022;2022-08-11T04:06:49;3.63;;;2.15;;
37805;SDS011;25082;50.870;0.022;2022-08-11T04:18:23;2.60;;;1.88;;
37805;SDS011;25082;50.870;0.022;2022-08-11T04:27:02;3.90;;;2.17;;
37805;SDS011;25082;50.870;0.022;2022-08-11T04:38:13;5.78;;;2.20;;
37805;SDS011;25082;50.870;0.022;2022-08-11T05:16:26;2.40;;;1.83;;
37805;SDS011;25082;50.870;0.022;2022-08-11T05:19:14;2.42;;;2.05;;
37805;SDS011;25082;50.870;0.022;2022-08-11T05:22:01;5.22;;;2.22;;
37805;SDS011;25082;50.870;0.022;2022-08-11T05:24:49;2.17;;;1.70;;
37805;SDS011;25082;50.870;0.022;2022-08-11T05:27:43;3.30;;;2.10;;
37805;SDS011;25082;50.870;0.022;2022-08-11T05:30:35;3.92;;;2.05;;
37805;SDS011;25082;50.870;0.022;2022-08-11T05:33:34;3.05;;;2.22;;
37805;SDS011;25082;50.870;0.022;2022-08-11T05:36:30;3.78;;;2.20;;
37805;SDS011;25082;50.870;0.022;2022-08-11T05:39:25;3.00;;;1.90;;
37805;SDS011;25082;50.870;0.022;2022-08-11T05:42:13;2.28;;;2.00;;
37805;SDS011;25082;50.870;0.022;2022-08-11T05:45:08;2.95;;;2.00;;
37805;SDS011;25082;50.870;0.022;2022-08-11T05:47:57;4.38;;;1.92;;
37805;SDS011;25082;50.870;0.022;2022-08-11T05:50:49;3.38;;;1.90;;
37805;SDS011;25082;50.870;0.022;2022-08-11T05:53:48;2.65;;;1.90;;
37805;SDS011;25082;50.870;0.022;2022-08-11T05:56:46;3.28;;;2.08;;
37805;SDS011;25082;50.870;0.022;2022-08-11T05:59:17;4.28;;;2.17;;
37805;SDS011;25082;50.870;0.022;2022-08-11T06:01:43;2.13;;;1.88;;
37805;SDS011;25082;50.870;0.022;2022-08-11T06:04:21;3.83;;;1.95;;
37805;SDS011;25082;50.870;0.022;2022-08-11T06:06:50;3.85;;;2.05;;
37805;SDS011;25082;50.870;0.022;2022-08-11T06:09:33;2.40;;;1.98;;
37805;SDS011;25082;50.870;0.022;2022-08-11T06:12:16;2.95;;;2.03;;
37805;SDS011;25082;50.870;0.022;2022-08-11T06:14:45;3.88;;;2.38;;
37805;SDS011;25082;50.870;0.022;2022-08-11T06:17:21;2.33;;;1.80;;
37805;SDS011;25082;50.870;0.022;2022-08-11T06:20:05;3.92;;;2.38;;
37805;SDS011;25082;50.870;0.022;2022-08-11T06:22:36;3.33;;;2.38;;
37805;SDS011;25082;50.870;0.022;2022-08-11T06:25:04;2.35;;;1.75;;
37805;SDS011;25082;50.870;0.022;2022-08-11T06:27:32;2.03;;;1.80;;
37805;SDS011;25082;50.870;0.022;2022-08-11T06:30:01;2.78;;;2.00;;
37805;SDS011;25082;50.870;0.022;2022-08-11T06:32:37;3.08;;;1.80;;
37805;SDS011;25082;50.870;0.022;2022-08-11T06:35:22;3.20;;;2.15;;
37805;SDS011;25082;50.870;0.022;2022-08-11T06:38:05;2.33;;;1.73;;
37805;SDS011;25082;50.870;0.022;2022-08-11T06:40:36;3.83;;;2.20;;
37805;SDS011;25082;50.870;0.022;2022-08-11T06:48:27;2.90;;;2.40;;
37805;SDS011;25082;50.870;0.022;2022-08-11T06:50:59;3.22;;;2.10;;
37805;SDS011;25082;50.870;0.022;2022-08-11T06:53:44;3.00;;;1.98;;
37805;SDS011;25082;50.870;0.022;2022-08-11T06:56:13;4.25;;;2.20;;
37805;SDS011;25082;50.870;0.022;2022-08-11T06:59:03;3.33;;;2.50;;
37805;SDS011;25082;50.870;0.022;2022-08-11T07:13:34;3.22;;;1.85;;
37805;SDS011;25082;50.870;0.022;2022-08-11T07:16:21;4.75;;;1.90;;
37805;SDS011;25082;50.870;0.022;2022-08-11T07:18:57;2.38;;;1.83;;
37805;SDS011;25082;50.870;0.022;2022-08-11T07:21:48;2.15;;;1.95;;
37805;SDS011;25082;50.870;0.022;2022-08-11T07:24:45;3.58;;;2.25;;
37805;SDS011;25082;50.870;0.022;2022-08-11T07:27:42;3.15;;;2.25;;
37805;SDS011;25082;50.870;0.022;2022-08-11T07:30:29;4.37;;;2.30;;
37805;SDS011;25082;50.870;0.022;2022-08-11T07:32:59;3.25;;;2.10;;
37805;SDS011;25082;50.870;0.022;2022-08-11T07:35:30;2.72;;;2.10;;
37805;SDS011;25082;50.870;0.022;2022-08-11T07:38:06;3.17;;;2.08;;
37805;SDS011;25082;50.870;0.022;2022-08-11T07:40:41;2.45;;;2.00;;
37805;SDS011;25082;50.870;0.022;2022-08-11T07:43:10;2.20;;;2.00;;
37805;SDS011;25082;50.870;0.022;2022-08-11T07:45:41;2.88;;;2.00;;
37805;SDS011;25082;50.870;0.022;2022-08-11T07:48:26;2.83;;;2.05;;
37805;SDS011;25082;50.870;0.022;2022-08-11T07:51:11;3.15;;;2.20;;
37805;SDS011;25082;50.870;0.022;2022-08-11T07:54:06;2.47;;;1.80;;
37805;SDS011;25082;50.870;0.022;2022-08-11T07:56:34;5.03;;;2.47;;
37805;SDS011;25082;50.870;0.022;2022-08-11T07:59:02;3.60;;;1.92;;
37805;SDS011;25082;50.870;0.022;2022-08-11T08:01:47;1.77;;;1.67;;
37805;SDS011;25082;50.870;0.022;2022-08-11T08:04:32;3.75;;;2.10;;
37805;SDS011;25082;50.870;0.022;2022-08-11T08:07:19;1.90;;;1.70;;
37805;SDS011;25082;50.870;0.022;2022-08-11T08:10:05;3.65;;;2.40;;
37805;SDS011;25082;50.870;0.022;2022-08-11T08:12:51;2.03;;;1.80;;
37805;SDS011;25082;50.870;0.022;2022-08-11T08:15:36;2.47;;;1.88;;
37805;SDS011;25082;50.870;0.022;2022-08-11T08:18:22;2.53;;;2.03;;
37805;SDS011;25082;50.870;0.022;2022-08-11T08:20:49;4.90;;;1.83;;
37805;SDS011;25082;50.870;0.022;2022-08-11T08:23:16;7.32;;;2.50;;
37805;SDS011;25082;50.870;0.022;2022-08-11T08:25:57;17.63;;;3.95;;
37805;SDS011;25082;50.870;0.022;2022-08-11T08:28:27;9.00;;;2.95;;
37805;SDS011;25082;50.870;0.022;2022-08-11T08:30:54;11.75;;;2.95;;
37805;SDS011;25082;50.870;0.022;2022-08-11T08:33:28;9.32;;;3.25;;
37805;SDS011;25082;50.870;0.022;2022-08-11T08:36:02;18.08;;;3.92;;
37805;SDS011;25082;50.870;0.022;2022-08-11T08:38:48;11.35;;;2.70;;
37805;SDS011;25082;50.870;0.022;2022-08-11T08:41:36;8.73;;;2.78;;
37805;SDS011;25082;50.870;0.022;2022-08-11T08:44:06;8.77;;;2.75;;
37805;SDS011;25082;50.870;0.022;2022-08-11T08:46:35;6.40;;;3.00;;
37805;SDS011;25082;50.870;0.022;2022-08-11T08:49:05;9.45;;;3.17;;
37805;SDS011;25082;50.870;0.022;2022-08-11T08:51:35;7.40;;;2.78;;
37805;SDS011;25082;50.870;0.022;2022-08-11T08:54:05;8.60;;;3.28;;
37805;SDS011;25082;50.870;0.022;2022-08-11T08:56:43;11.35;;;3.50;;
37805;SDS011;25082;50.870;0.022;2022-08-11T08:59:10;11.85;;;3.25;;
37805;SDS011;25082;50.870;0.022;2022-08-11T09:01:42;10.65;;;3.08;;
37805;SDS011;25082;50.870;0.022;2022-08-11T09:04:19;16.70;;;3.15;;
37805;SDS011;25082;50.870;0.022;2022-08-11T09:06:46;24.50;;;3.72;;
37805;SDS011;25082;50.870;0.022;2022-08-11T09:09:12;15.60;;;3.30;;
37805;SDS011;25082;50.870;0.022;2022-08-11T09:11:40;14.88;;;3.28;;
37805;SDS011;25082;50.870;0.022;2022-08-11T09:14:14;9.18;;;3.28;;
37805;SDS011;25082;50.870;0.022;2022-08-11T09:16:42;10.38;;;3.33;;
37805;SDS011;25082;50.870;0.022;2022-08-11T09:19:09;9.18;;;3.22;;
37805;SDS011;25082;50.870;0.022;2022-08-11T09:21:40;7.93;;;3.22;;
37805;SDS011;25082;50.870;0.022;2022-08-11T09:24:35;8.82;;;3.25;;
37805;SDS011;25082;50.870;0.022;2022-08-11T09:27:20;8.73;;;2.90;;
37805;SDS011;25082;50.870;0.022;2022-08-11T09:29:47;6.57;;;2.67;;
37805;SDS011;25082;50.870;0.022;2022-08-11T09:32:18;9.68;;;3.30;;
37805;SDS011;25082;50.870;0.022;2022-08-11T09:34:49;5.03;;;2.60;;
37805;SDS011;25082;50.870;0.022;2022-08-11T09:37:16;5.60;;;2.63;;
37805;SDS011;25082;50.870;0.022;2022-08-11T09:40:01;4.40;;;3.05;;
37805;SDS011;25082;50.870;0.022;2022-08-11T09:42:47;5.88;;;2.70;;
37805;SDS011;25082;50.870;0.022;2022-08-11T09:45:32;6.43;;;2.72;;
37805;SDS011;25082;50.870;0.022;2022-08-11T09:47:58;8.10;;;2.40;;
37805;SDS011;25082;50.870;0.022;2022-08-11T09:50:29;4.88;;;2.65;;
37805;SDS011;25082;50.870;0.022;2022-08-11T09:52:56;6.82;;;3.30;;
37805;SDS011;25082;50.870;0.022;2022-08-11T09:55:23;7.57;;;2.95;;
37805;SDS011;25082;50.870;0.022;2022-08-11T09:57:50;9.30;;;2.70;;
37805;SDS011;25082;50.870;0.022;2022-08-11T10:00:35;6.80;;;2.70;;
37805;SDS011;25082;50.870;0.022;2022-08-11T10:03:03;7.82;;;2.97;;
37805;SDS011;25082;50.870;0.022;2022-08-11T10:05:34;9.35;;;2.92;;
37805;SDS011;25082;50.870;0.022;2022-08-11T10:08:22;4.22;;;2.53;;
37805;SDS011;25082;50.870;0.022;2022-08-11T10:10:52;4.50;;;3.00;;
37805;SDS011;25082;50.870;0.022;2022-08-11T10:13:20;8.13;;;3.50;;
37805;SDS011;25082;50.870;0.022;2022-08-11T10:15:51;7.40;;;3.03;;
37805;SDS011;25082;50.870;0.022;2022-08-11T10:18:23;5.53;;;2.90;;
37805;SDS011;25082;50.870;0.022;2022-08-11T10:23:54;5.95;;;2.88;;
37805;SDS011;25082;50.870;0.022;2022-08-11T10:26:41;5.05;;;3.08;;
37805;SDS011;25082;50.870;0.022;2022-08-11T10:29:18;5.10;;;2.95;;
37805;SDS011;25082;50.870;0.022;2022-08-11T10:32:07;4.35;;;3.05;;
37805;SDS011;25082;50.870;0.022;2022-08-11T10:34:53;4.15;;;3.20;;
37805;SDS011;25082;50.870;0.022;2022-08-11T10:37:21;4.43;;;2.80;;
37805;SDS011;25082;50.870;0.022;2022-08-11T10:39:49;7.88;;;3.22;;
37805;SDS011;25082;50.870;0.022;2022-08-11T10:42:16;4.60;;;3.30;;
37805;SDS011;25082;50.870;0.022;2022-08-11T10:45:03;5.18;;;2.60;;
37805;SDS011;25082;50.870;0.022;2022-08-11T10:47:54;4.03;;;3.10;;
37805;SDS011;25082;50.870;0.022;2022-08-11T10:50:21;4.55;;;2.88;;
37805;SDS011;25082;50.870;0.022;2022-08-11T10:53:07;3.05;;;2.55;;
37805;SDS011;25082;50.870;0.022;2022-08-11T10:55:52;3.58;;;2.75;;
37805;SDS011;25082;50.870;0.022;2022-08-11T10:58:38;3.78;;;2.80;;
37805;SDS011;25082;50.870;0.022;2022-08-11T11:01:19;3.50;;;2.67;;
37805;SDS011;25082;50.870;0.022;2022-08-11T11:03:55;3.85;;;2.95;;
37805;SDS011;25082;50.870;0.022;2022-08-11T11:11:48;3.97;;;2.50;;
37805;SDS011;25082;50.870;0.022;2022-08-11T11:14:39;11.48;;;3.47;;
37805;SDS011;25082;50.870;0.022;2022-08-11T11:17:27;3.60;;;2.70;;
37805;SDS011;25082;50.870;0.022;2022-08-11T11:20:15;4.07;;;3.00;;
37805;SDS011;25082;50.870;0.022;2022-08-11T11:22:43;5.00;;;3.42;;
37805;SDS011;25082;50.870;0.022;2022-08-11T11:25:20;4.63;;;2.78;;
37805;SDS011;25082;50.870;0.022;2022-08-11T11:30:27;4.30;;;3.38;;
37805;SDS011;25082;50.870;0.022;2022-08-11T11:33:03;5.15;;;3.40;;
37805;SDS011;25082;50.870;0.022;2022-08-11T11:35:46;4.28;;;3.17;;
37805;SDS011;25082;50.870;0.022;2022-08-11T11:38:24;4.25;;;3.10;;
37805;SDS011;25082;50.870;0.022;2022-08-11T11:40:51;4.00;;;3.30;;
37805;SDS011;25082;50.870;0.022;2022-08-11T11:43:37;3.60;;;3.28;;
37805;SDS011;25082;50.870;0.022;2022-08-11T11:46:03;3.45;;;2.92;;
37805;SDS011;25082;50.870;0.022;2022-08-11T11:48:31;6.15;;;3.13;;
37805;SDS011;25082;50.870;0.022;2022-08-11T11:50:59;3.00;;;2.70;;
37805;SDS011;25082;50.870;0.022;2022-08-11T11:53:25;8.77;;;3.08;;
37805;SDS011;25082;50.870;0.022;2022-08-11T11:55:53;8.18;;;3.60;;
37805;SDS011;25082;50.870;0.022;2022-08-11T11:58:19;10.70;;;3.60;;
37805;SDS011;25082;50.870;0.022;2022-08-11T12:01:04;11.32;;;4.03;;
37805;SDS011;25082;50.870;0.022;2022-08-11T12:03:40;7.03;;;3.30;;
37805;SDS011;25082;50.870;0.022;2022-08-11T12:06:09;6.32;;;3.35;;
37805;SDS011;25082;50.870;0.022;2022-08-11T12:08:38;6.05;;;3.25;;
37805;SDS011;25082;50.870;0.022;2022-08-11T12:11:05;8.45;;;3.83;;
37805;SDS011;25082;50.870;0.022;2022-08-11T12:16:24;6.47;;;3.25;;
37805;SDS011;25082;50.870;0.022;2022-08-11T12:18:52;4.90;;;2.92;;
37805;SDS011;25082;50.870;0.022;2022-08-11T12:21:21;5.43;;;3.10;;
37805;SDS011;25082;50.870;0.022;2022-08-11T12:23:50;4.65;;;3.20;;
37805;SDS011;25082;50.870;0.022;2022-08-11T12:26:37;4.53;;;2.70;;
37805;SDS011;25082;50.870;0.022;2022-08-11T12:29:22;5.50;;;3.22;;
37805;SDS011;25082;50.870;0.022;2022-08-11T12:31:55;4.95;;;2.50;;
37805;SDS011;25082;50.870;0.022;2022-08-11T12:34:24;9.82;;;3.30;;
37805;SDS011;25082;50.870;0.022;2022-08-11T12:37:01;3.85;;;2.42;;
37805;SDS011;25082;50.870;0.022;2022-08-11T12:39:32;6.13;;;2.83;;
37805;SDS011;25082;50.870;0.022;2022-08-11T12:42:20;3.40;;;2.72;;
37805;SDS011;25082;50.870;0.022;2022-08-11T12:45:09;7.68;;;2.90;;
37805;SDS011;25082;50.870;0.022;2022-08-11T12:47:53;7.82;;;2.55;;
37805;SDS011;25082;50.870;0.022;2022-08-11T12:50:53;5.43;;;3.00;;
37805;SDS011;25082;50.870;0.022;2022-08-11T12:53:45;3.83;;;3.00;;
37805;SDS011;25082;50.870;0.022;2022-08-11T12:57:33;4.50;;;2.70;;
37805;SDS011;25082;50.870;0.022;2022-08-11T12:59:40;5.60;;;2.85;;
37805;SDS011;25082;50.870;0.022;2022-08-11T13:02:25;5.75;;;2.60;;
37805;SDS011;25082;50.870;0.022;2022-08-11T13:05:11;4.10;;;2.72;;
37805;SDS011;25082;50.870;0.022;2022-08-11T13:07:39;9.85;;;3.40;;
37805;SDS011;25082;50.870;0.022;2022-08-11T13:10:08;4.68;;;2.78;;
37805;SDS011;25082;50.870;0.022;2022-08-11T13:12:36;6.72;;;2.92;;
37805;SDS011;25082;50.870;0.022;2022-08-11T13:15:19;5.55;;;3.20;;
37805;SDS011;25082;50.870;0.022;2022-08-11T13:17:52;8.52;;;3.17;;
37805;SDS011;25082;50.870;0.022;2022-08-11T13:20:21;6.00;;;2.80;;
37805;SDS011;25082;50.870;0.022;2022-08-11T13:22:48;3.72;;;3.05;;
37805;SDS011;25082;50.870;0.022;2022-08-11T13:25:17;6.63;;;3.20;;
37805;SDS011;25082;50.870;0.022;2022-08-11T13:27:48;8.45;;;3.40;;
37805;SDS011;25082;50.870;0.022;2022-08-11T13:30:16;11.55;;;3.60;;
37805;SDS011;25082;50.870;0.022;2022-08-11T13:33:02;12.68;;;3.47;;
37805;SDS011;25082;50.870;0.022;2022-08-11T13:35:31;8.95;;;2.97;;
37805;SDS011;25082;50.870;0.022;2022-08-11T13:37:58;5.80;;;3.13;;
37805;SDS011;25082;50.870;0.022;2022-08-11T13:40:26;5.10;;;3.55;;
37805;SDS011;25082;50.870;0.022;2022-08-11T13:42:54;8.68;;;3.25;;
37805;SDS011;25082;50.870;0.022;2022-08-11T13:45:22;6.55;;;2.92;;
37805;SDS011;25082;50.870;0.022;2022-08-11T13:47:48;7.60;;;3.60;;
37805;SDS011;25082;50.870;0.022;2022-08-11T13:50:17;7.72;;;2.85;;
37805;SDS011;25082;50.870;0.022;2022-08-11T13:52:43;3.92;;;2.80;;
37805;SDS011;25082;50.870;0.022;2022-08-11T13:55:13;4.70;;;2.80;;
37805;SDS011;25082;50.870;0.022;2022-08-11T13:57:50;4.15;;;2.80;;
37805;SDS011;25082;50.870;0.022;2022-08-11T14:00:18;4.72;;;2.60;;
37805;SDS011;25082;50.870;0.022;2022-08-11T14:02:44;11.80;;;3.42;;
37805;SDS011;25082;50.870;0.022;2022-08-11T14:05:15;6.90;;;3.00;;
37805;SDS011;25082;50.870;0.022;2022-08-11T14:07:47;4.35;;;2.60;;
37805;SDS011;25082;50.870;0.022;2022-08-11T14:10:16;4.43;;;2.78;;
37805;SDS011;25082;50.870;0.022;2022-08-11T14:12:56;6.85;;;2.92;;
37805;SDS011;25082;50.870;0.022;2022-08-11T14:15:44;6.50;;;2.85;;
37805;SDS011;25082;50.870;0.022;2022-08-11T14:20:41;3.38;;;2.95;;
37805;SDS011;25082;50.870;0.022;2022-08-11T14:23:31;7.15;;;2.78;;
37805;SDS011;25082;50.870;0.022;2022-08-11T14:26:02;3.83;;;2.58;;
37805;SDS011;25082;50.870;0.022;2022-08-11T14:28:52;5.78;;;3.42;;
37805;SDS011;25082;50.870;0.022;2022-08-11T14:31:20;4.95;;;2.83;;
37805;SDS011;25082;50.870;0.022;2022-08-11T14:33:49;3.85;;;2.40;;
37805;SDS011;25082;50.870;0.022;2022-08-11T14:36:16;4.63;;;2.92;;
37805;SDS011;25082;50.870;0.022;2022-08-11T14:38:44;4.20;;;2.60;;
37805;SDS011;25082;50.870;0.022;2022-08-11T14:41:11;4.28;;;2.78;;
37805;SDS011;25082;50.870;0.022;2022-08-11T14:43:55;7.72;;;3.33;;
37805;SDS011;25082;50.870;0.022;2022-08-11T14:46:40;4.63;;;3.38;;
37805;SDS011;25082;50.870;0.022;2022-08-11T14:49:26;5.10;;;2.88;;
37805;SDS011;25082;50.870;0.022;2022-08-11T14:51:53;5.25;;;3.30;;
37805;SDS011;25082;50.870;0.022;2022-08-11T14:54:25;4.68;;;2.65;;
37805;SDS011;25082;50.870;0.022;2022-08-11T14:57:12;5.97;;;3.03;;
37805;SDS011;25082;50.870;0.022;2022-08-11T14:59:39;6.10;;;3.08;;
37805;SDS011;25082;50.870;0.022;2022-08-11T15:02:06;5.57;;;2.72;;
37805;SDS011;25082;50.870;0.022;2022-08-11T15:04:51;6.15;;;2.65;;
37805;SDS011;25082;50.870;0.022;2022-08-11T15:07:17;4.43;;;2.67;;
37805;SDS011;25082;50.870;0.022;2022-08-11T15:09:53;8.68;;;2.97;;
37805;SDS011;25082;50.870;0.022;2022-08-11T15:12:26;6.38;;;3.10;;
37805;SDS011;25082;50.870;0.022;2022-08-11T15:14:54;4.25;;;3.10;;
37805;SDS011;25082;50.870;0.022;2022-08-11T15:17:38;5.22;;;3.25;;
37805;SDS011;25082;50.870;0.022;2022-08-11T15:20:06;12.07;;;3.30;;
37805;SDS011;25082;50.870;0.022;2022-08-11T15:22:53;9.13;;;2.97;;
37805;SDS011;25082;50.870;0.022;2022-08-11T15:25:38;6.75;;;3.20;;
37805;SDS011;25082;50.870;0.022;2022-08-11T15:28:10;9.57;;;3.20;;
37805;SDS011;25082;50.870;0.022;2022-08-11T15:30:58;3.28;;;2.88;;
37805;SDS011;25082;50.870;0.022;2022-08-11T15:33:45;3.08;;;2.42;;
37805;SDS011;25082;50.870;0.022;2022-08-11T15:36:33;5.35;;;2.67;;
37805;SDS011;25082;50.870;0.022;2022-08-11T15:39:27;5.00;;;2.33;;
37805;SDS011;25082;50.870;0.022;2022-08-11T15:42:09;3.42;;;2.45;;
37805;SDS011;25082;50.870;0.022;2022-08-11T15:44:58;3.10;;;2.55;;
37805;SDS011;25082;50.870;0.022;2022-08-11T15:47:48;5.30;;;2.25;;
37805;SDS011;25082;50.870;0.022;2022-08-11T15:50:21;3.58;;;2.30;;
37805;SDS011;25082;50.870;0.022;2022-08-11T15:53:30;2.42;;;2.10;;
37805;SDS011;25082;50.870;0.022;2022-08-11T15:55:53;5.20;;;2.78;;
37805;SDS011;25082;50.870;0.022;2022-08-11T15:58:22;6.50;;;2.22;;
37805;SDS011;25082;50.870;0.022;2022-08-11T16:01:08;5.95;;;2.10;;
37805;SDS011;25082;50.870;0.022;2022-08-11T16:03:56;4.13;;;1.95;;
37805;SDS011;25082;50.870;0.022;2022-08-11T16:06:42;4.35;;;2.25;;
37805;SDS011;25082;50.870;0.022;2022-08-11T16:09:14;9.43;;;3.17;;
37805;SDS011;25082;50.870;0.022;2022-08-11T16:11:44;4.05;;;2.40;;
37805;SDS011;25082;50.870;0.022;2022-08-11T16:14:12;3.22;;;2.20;;
37805;SDS011;25082;50.870;0.022;2022-08-11T16:16:59;4.18;;;2.30;;
37805;SDS011;25082;50.870;0.022;2022-08-11T16:19:28;3.30;;;2.38;;
37805;SDS011;25082;50.870;0.022;2022-08-11T16:21:59;3.85;;;2.05;;
37805;SDS011;25082;50.870;0.022;2022-08-11T16:24:26;2.70;;;2.00;;
37805;SDS011;25082;50.870;0.022;2022-08-11T16:26:53;2.33;;;1.80;;
37805;SDS011;25082;50.870;0.022;2022-08-11T16:29:20;5.30;;;2.33;;
37805;SDS011;25082;50.870;0.022;2022-08-11T16:31:49;4.32;;;2.15;;
37805;SDS011;25082;50.870;0.022;2022-08-11T16:34:40;2.80;;;2.20;;
37805;SDS011;25082;50.870;0.022;2022-08-11T16:37:33;2.95;;;1.88;;
37805;SDS011;25082;50.870;0.022;2022-08-11T16:40:20;3.88;;;2.20;;
37805;SDS011;25082;50.870;0.022;2022-08-11T16:42:47;3.78;;;2.50;;
37805;SDS011;25082;50.870;0.022;2022-08-11T16:45:43;6.85;;;2.75;;
37805;SDS011;25082;50.870;0.022;2022-08-11T16:48:30;4.35;;;2.50;;
37805;SDS011;25082;50.870;0.022;2022-08-11T16:50:58;3.85;;;2.50;;
37805;SDS011;25082;50.870;0.022;2022-08-11T16:53:26;2.40;;;1.92;;
37805;SDS011;25082;50.870;0.022;2022-08-11T16:55:53;3.03;;;2.28;;
37805;SDS011;25082;50.870;0.022;2022-08-11T16:58:22;4.55;;;2.53;;
37805;SDS011;25082;50.870;0.022;2022-08-11T17:01:07;3.35;;;2.25;;
37805;SDS011;25082;50.870;0.022;2022-08-11T17:03:35;2.95;;;1.98;;
37805;SDS011;25082;50.870;0.022;2022-08-11T17:09:12;4.10;;;2.75;;
37805;SDS011;25082;50.870;0.022;2022-08-11T17:12:02;8.88;;;2.83;;
37805;SDS011;25082;50.870;0.022;2022-08-11T17:14:59;5.78;;;3.30;;
37805;SDS011;25082;50.870;0.022;2022-08-11T17:17:30;5.13;;;3.38;;
37805;SDS011;25082;50.870;0.022;2022-08-11T17:20:00;6.50;;;3.03;;
37805;SDS011;25082;50.870;0.022;2022-08-11T17:22:31;5.18;;;3.53;;
37805;SDS011;25082;50.870;0.022;2022-08-11T17:25:18;7.18;;;3.38;;
37805;SDS011;25082;50.870;0.022;2022-08-11T17:27:46;7.47;;;3.47;;
37805;SDS011;25082;50.870;0.022;2022-08-11T17:30:14;6.63;;;3.17;;
37805;SDS011;25082;50.870;0.022;2022-08-11T17:32:49;3.38;;;2.88;;
37805;SDS011;25082;50.870;0.022;2022-08-11T17:35:36;7.88;;;3.47;;
37805;SDS011;25082;50.870;0.022;2022-08-11T17:38:20;6.15;;;3.70;;
37805;SDS011;25082;50.870;0.022;2022-08-11T17:40:50;6.43;;;3.63;;
37805;SDS011;25082;50.870;0.022;2022-08-11T17:43:36;6.53;;;3.65;;
37805;SDS011;25082;50.870;0.022;2022-08-11T17:46:22;9.35;;;3.55;;
37805;SDS011;25082;50.870;0.022;2022-08-11T17:49:08;14.35;;;3.92;;
37805;SDS011;25082;50.870;0.022;2022-08-11T17:51:35;10.45;;;3.50;;
37805;SDS011;25082;50.870;0.022;2022-08-11T17:54:21;4.82;;;3.47;;
37805;SDS011;25082;50.870;0.022;2022-08-11T17:57:06;4.07;;;3.25;;
37805;SDS011;25082;50.870;0.022;2022-08-11T17:59:51;6.90;;;3.65;;
37805;SDS011;25082;50.870;0.022;2022-08-11T18:02:22;7.47;;;3.20;;
37805;SDS011;25082;50.870;0.022;2022-08-11T18:05:11;6.60;;;4.22;;
37805;SDS011;25082;50.870;0.022;2022-08-11T18:07:39;5.25;;;3.30;;
37805;SDS011;25082;50.870;0.022;2022-08-11T18:10:24;5.18;;;3.72;;
37805;SDS011;25082;50.870;0.022;2022-08-11T18:13:09;5.07;;;3.65;;
37805;SDS011;25082;50.870;0.022;2022-08-11T18:15:54;4.10;;;3.38;;
37805;SDS011;25082;50.870;0.022;2022-08-11T18:18:39;11.07;;;3.75;;
37805;SDS011;25082;50.870;0.022;2022-08-11T18:21:23;5.03;;;3.17;;
37805;SDS011;25082;50.870;0.022;2022-08-11T18:24:11;5.32;;;3.50;;
37805;SDS011;25082;50.870;0.022;2022-08-11T18:27:00;6.93;;;3.15;;
37805;SDS011;25082;50.870;0.022;2022-08-11T18:29:47;8.25;;;3.85;;
37805;SDS011;25082;50.870;0.022;2022-08-11T18:32:35;5.93;;;3.35;;
37805;SDS011;25082;50.870;0.022;2022-08-11T18:35:21;5.88;;;3.80;;
37805;SDS011;25082;50.870;0.022;2022-08-11T18:38:10;12.38;;;3.83;;
37805;SDS011;25082;50.870;0.022;2022-08-11T18:40:56;6.72;;;3.50;;
37805;SDS011;25082;50.870;0.022;2022-08-11T18:43:44;9.10;;;3.47;;
37805;SDS011;25082;50.870;0.022;2022-08-11T18:46:32;5.85;;;3.33;;
37805;SDS011;25082;50.870;0.022;2022-08-11T18:49:20;10.20;;;3.53;;
37805;SDS011;25082;50.870;0.022;2022-08-11T18:52:08;7.82;;;3.45;;
37805;SDS011;25082;50.870;0.022;2022-08-11T18:54:56;6.53;;;3.63;;
37805;SDS011;25082;50.870;0.022;2022-08-11T18:57:42;8.65;;;4.05;;
37805;SDS011;25082;50.870;0.022;2022-08-11T19:00:31;5.28;;;3.45;;
37805;SDS011;25082;50.870;0.022;2022-08-11T19:03:17;14.75;;;4.43;;
37805;SDS011;25082;50.870;0.022;2022-08-11T19:06:04;11.82;;;4.18;;
37805;SDS011;25082;50.870;0.022;2022-08-11T19:08:52;8.27;;;3.83;;
37805;SDS011;25082;50.870;0.022;2022-08-11T19:11:41;11.45;;;4.10;;
37805;SDS011;25082;50.870;0.022;2022-08-11T19:14:28;5.88;;;3.55;;
37805;SDS011;25082;50.870;0.022;2022-08-11T19:17:13;4.47;;;3.00;;
37805;SDS011;25082;50.870;0.022;2022-08-11T19:19:59;15.10;;;3.88;;
37805;SDS011;25082;50.870;0.022;2022-08-11T19:22:46;6.68;;;3.00;;
37805;SDS011;25082;50.870;0.022;2022-08-11T19:25:32;5.10;;;3.50;;